createdAt,value
2023-07-10T00:00:36.686Z,13.80
2023-07-10T00:03:11.613Z,13.80
2023-07-10T00:05:47.090Z,13.80
2023-07-10T00:08:20.716Z,13.80
2023-07-10T00:10:54.744Z,13.70
2023-07-10T00:13:28.529Z,13.70
2023-07-10T00:16:02.366Z,13.60
2023-07-10T00:18:36.146Z,13.60
2023-07-10T00:21:11.198Z,13.50
2023-07-10T00:23:44.786Z,13.50
2023-07-10T00:26:22.326Z,13.40
2023-07-10T00:28:57.634Z,13.40
2023-07-10T00:31:31.337Z,13.40
2023-07-10T00:34:10.497Z,13.40
2023-07-10T00:36:49.281Z,13.40
2023-07-10T00:39:25.748Z,13.30
2023-07-10T00:42:01.810Z,13.30
2023-07-10T00:44:39.623Z,13.20
2023-07-10T00:47:19.823Z,13.20
2023-07-10T00:50:00.567Z,13.20
2023-07-10T00:52:39.886Z,13.10
2023-07-10T00:55:19.438Z,13.10
2023-07-10T00:58:13.436Z,13.10
2023-07-10T01:01:05.019Z,13.00
2023-07-10T01:03:40.447Z,13.00
2023-07-10T01:06:18.914Z,13.00
2023-07-10T01:08:57.214Z,12.90
2023-07-10T01:11:31.328Z,12.90
2023-07-10T01:14:07.277Z,12.80
2023-07-10T01:16:41.942Z,12.80
2023-07-10T01:19:21.204Z,12.80
2023-07-10T01:21:56.328Z,12.80
2023-07-10T01:24:30.048Z,12.80
2023-07-10T01:27:04.806Z,12.70
2023-07-10T01:29:43.402Z,12.70
2023-07-10T01:32:19.572Z,12.70
2023-07-10T01:34:56.375Z,12.60
2023-07-10T01:37:31.425Z,12.60
2023-07-10T01:40:06.125Z,12.60
2023-07-10T01:42:39.819Z,12.50
2023-07-10T01:45:16.167Z,12.50
2023-07-10T01:47:54.109Z,12.50
2023-07-10T01:50:28.625Z,12.50
2023-07-10T01:53:03.759Z,12.40
2023-07-10T01:55:44.533Z,12.40
2023-07-10T01:58:18.160Z,12.40
2023-07-10T02:00:51.748Z,12.40
2023-07-10T02:03:25.509Z,12.30
2023-07-10T02:05:59.258Z,12.30
2023-07-10T02:08:34.268Z,12.30
2023-07-10T02:11:08.021Z,12.30
2023-07-10T02:13:44.709Z,12.20
2023-07-10T02:16:18.639Z,12.20
2023-07-10T02:18:52.272Z,12.20
2023-07-10T02:21:25.978Z,12.20
2023-07-10T02:24:01.187Z,12.20
2023-07-10T02:26:34.780Z,12.10
2023-07-10T02:29:08.720Z,12.10
2023-07-10T02:31:42.476Z,12.10
2023-07-10T02:34:16.184Z,12.00
2023-07-10T02:36:49.810Z,12.00
2023-07-10T02:39:24.883Z,12.00
2023-07-10T02:41:58.486Z,12.00
2023-07-10T02:44:32.188Z,12.00
2023-07-10T02:47:06.246Z,11.90
2023-07-10T02:49:39.823Z,12.00
2023-07-10T02:52:13.420Z,11.90
2023-07-10T02:54:48.473Z,11.90
2023-07-10T02:57:22.125Z,11.90
2023-07-10T02:59:55.786Z,11.90
2023-07-10T03:02:29.463Z,11.90
2023-07-10T03:05:03.232Z,11.90
2023-07-10T03:07:37.210Z,11.80
2023-07-10T03:10:13.514Z,11.80
2023-07-10T03:12:49.987Z,11.80
2023-07-10T03:15:24.930Z,11.80
2023-07-10T03:17:58.871Z,11.90
2023-07-10T03:20:32.504Z,11.80
2023-07-10T03:23:06.183Z,11.90
2023-07-10T03:25:41.224Z,11.90
2023-07-10T03:28:15.457Z,11.90
2023-07-10T03:30:49.317Z,11.90
2023-07-10T03:33:23.013Z,11.90
2023-07-10T03:36:00.838Z,12.00
2023-07-10T03:38:34.979Z,12.00
2023-07-10T03:41:10.299Z,12.00
2023-07-10T03:43:43.909Z,12.10
2023-07-10T03:46:18.096Z,12.10
2023-07-10T03:48:52.518Z,12.10
2023-07-10T03:51:26.387Z,12.20
2023-07-10T03:54:00.064Z,12.30
2023-07-10T03:56:35.191Z,12.30
2023-07-10T03:59:10.590Z,12.30
2023-07-10T04:01:44.998Z,12.40
2023-07-10T04:04:19.642Z,12.40
2023-07-10T04:06:53.393Z,12.50
2023-07-10T04:09:27.054Z,12.50
2023-07-10T04:12:02.215Z,12.60
2023-07-10T04:14:37.774Z,12.70
2023-07-10T04:17:15.443Z,12.70
2023-07-10T04:19:49.202Z,12.80
2023-07-10T04:22:22.855Z,12.90
2023-07-10T04:24:56.571Z,12.90
2023-07-10T04:27:31.565Z,13.00
2023-07-10T04:30:05.928Z,13.10
2023-07-10T04:32:39.779Z,13.20
2023-07-10T04:35:13.738Z,13.20
2023-07-10T04:37:47.447Z,13.30
2023-07-10T04:40:22.717Z,13.30
2023-07-10T04:42:57.828Z,13.50
2023-07-10T04:45:31.603Z,13.50
2023-07-10T04:48:05.717Z,13.60
2023-07-10T04:50:42.037Z,13.70
2023-07-10T04:53:15.741Z,13.80
2023-07-10T04:55:50.680Z,13.80
2023-07-10T04:58:26.955Z,13.90
2023-07-10T05:01:01.917Z,14.00
2023-07-10T05:03:35.570Z,14.10
2023-07-10T05:06:09.327Z,14.20
2023-07-10T05:08:43.030Z,14.30
2023-07-10T05:11:17.674Z,14.40
2023-07-10T05:13:52.686Z,14.50
2023-07-10T05:16:27.064Z,14.60
2023-07-10T05:19:00.821Z,14.70
2023-07-10T05:21:34.532Z,14.80
2023-07-10T05:24:08.521Z,14.90
2023-07-10T05:26:42.399Z,15.10
2023-07-10T05:29:17.565Z,15.10
2023-07-10T05:31:51.505Z,15.30
2023-07-10T05:34:25.247Z,15.40
2023-07-10T05:36:59.649Z,15.50
2023-07-10T05:39:43.797Z,15.60
2023-07-10T05:42:18.822Z,15.70
2023-07-10T05:44:53.903Z,15.80
2023-07-10T05:47:27.511Z,15.90
2023-07-10T05:50:01.406Z,16.00
2023-07-10T05:52:35.253Z,16.10
2023-07-10T05:55:09.464Z,16.20
2023-07-10T05:57:43.179Z,16.30
2023-07-10T06:00:19.428Z,16.50
2023-07-10T06:02:53.117Z,16.60
2023-07-10T06:05:26.778Z,16.70
2023-07-10T06:08:00.410Z,16.90
2023-07-10T06:10:35.274Z,17.00
2023-07-10T06:13:08.926Z,17.10
2023-07-10T06:15:45.179Z,17.20
2023-07-10T06:18:19.457Z,17.40
2023-07-10T06:20:54.403Z,17.50
2023-07-10T06:23:29.505Z,17.60
2023-07-10T06:26:03.593Z,17.70
2023-07-10T06:28:38.048Z,17.90
2023-07-10T06:31:14.121Z,18.00
2023-07-10T06:33:47.906Z,18.20
2023-07-10T06:36:21.608Z,18.30
2023-07-10T06:38:55.512Z,18.50
2023-07-10T06:41:29.679Z,18.60
2023-07-10T06:44:03.299Z,18.80
2023-07-10T06:46:38.436Z,19.00
2023-07-10T06:49:12.104Z,19.10
2023-07-10T06:51:45.832Z,19.30
2023-07-10T06:54:19.677Z,19.40
2023-07-10T06:56:53.278Z,19.60
2023-07-10T06:59:26.887Z,19.80
2023-07-10T07:02:02.006Z,19.90
2023-07-10T07:04:35.694Z,20.10
2023-07-10T07:07:10.059Z,20.30
2023-07-10T07:09:44.479Z,20.50
2023-07-10T07:12:18.183Z,20.70
2023-07-10T07:14:51.791Z,20.90
2023-07-10T07:17:27.012Z,21.10
2023-07-10T07:20:00.716Z,21.30
2023-07-10T07:22:34.372Z,21.50
2023-07-10T07:25:08.728Z,21.70
2023-07-10T07:27:42.379Z,21.90
2023-07-10T07:30:16.126Z,22.10
2023-07-10T07:32:51.553Z,22.30
2023-07-10T07:35:25.593Z,22.50
2023-07-10T07:37:59.194Z,22.70
2023-07-10T07:40:33.636Z,23.00
2023-07-10T07:43:07.408Z,23.20
2023-07-10T07:45:41.071Z,23.40
2023-07-10T07:48:16.198Z,23.60
2023-07-10T07:50:58.176Z,23.90
2023-07-10T07:53:35.608Z,24.10
2023-07-10T07:56:09.377Z,24.30
2023-07-10T07:58:43.227Z,24.60
2023-07-10T08:01:18.498Z,24.80
2023-07-10T08:03:53.980Z,25.00
2023-07-10T08:06:29.243Z,25.30
2023-07-10T08:09:03.869Z,25.50
2023-07-10T08:11:47.760Z,25.70
2023-07-10T08:14:47.244Z,26.00
2023-07-10T08:17:23.161Z,26.30
2023-07-10T08:19:58.742Z,26.50
2023-07-10T08:22:33.214Z,26.80
2023-07-10T08:25:08.598Z,27.00
2023-07-10T08:27:43.082Z,27.20
2023-07-10T08:30:19.327Z,27.40
2023-07-10T08:32:53.442Z,27.60
2023-07-10T08:35:29.779Z,27.80
2023-07-10T08:38:03.644Z,28.00
2023-07-10T08:40:42.749Z,28.30
2023-07-10T08:43:24.768Z,28.60
2023-07-10T08:46:10.626Z,28.80
2023-07-10T08:48:48.679Z,29.20
2023-07-10T08:51:35.144Z,29.40
2023-07-10T08:54:17.357Z,29.50
2023-07-10T08:56:57.720Z,29.80
2023-07-10T08:59:42.022Z,30.10
2023-07-10T09:02:36.244Z,30.30
2023-07-10T09:05:16.488Z,30.40
2023-07-10T09:07:53.048Z,30.70
2023-07-10T09:10:49.121Z,30.90
2023-07-10T09:13:37.802Z,31.20
2023-07-10T09:16:16.544Z,31.40
2023-07-10T09:18:56.121Z,31.50
2023-07-10T09:21:32.809Z,31.70
2023-07-10T09:24:15.063Z,31.90
2023-07-10T09:26:49.135Z,31.90
2023-07-10T09:29:38.816Z,31.90
2023-07-10T09:32:14.912Z,31.80
2023-07-10T09:38:54.612Z,31.90
2023-07-10T09:45:20.488Z,32.00
2023-07-10T09:48:58.406Z,32.20
2023-07-10T09:52:15.256Z,32.50
2023-07-10T09:54:59.680Z,32.60
2023-07-10T09:58:18.687Z,32.90
2023-07-10T10:00:58.488Z,33.10
2023-07-10T10:04:09.525Z,33.20
2023-07-10T10:15:09.428Z,33.40
2023-07-10T10:27:44.330Z,34.20
2023-07-10T10:31:17.645Z,34.50
2023-07-10T10:39:34.499Z,34.60
2023-07-10T10:43:43.744Z,34.70
2023-07-10T10:46:29.386Z,34.70
2023-07-10T10:49:24.352Z,34.50
2023-07-10T10:52:07.843Z,34.60
2023-07-10T10:54:52.379Z,34.60
2023-07-10T10:57:50.648Z,34.60
2023-07-10T11:00:36.288Z,34.60
2023-07-10T11:03:23.431Z,34.50
2023-07-10T11:06:01.566Z,34.40
2023-07-10T11:08:44.235Z,34.30
2023-07-10T11:11:47.723Z,34.30
2023-07-10T11:14:26.152Z,34.20
2023-07-10T11:17:02.193Z,34.20
2023-07-10T11:29:30.348Z,34.10
2023-07-10T11:37:32.533Z,34.10
2023-07-10T11:50:44.235Z,34.10
2023-07-10T12:01:55.363Z,34.50
2023-07-10T12:04:41.228Z,34.70
2023-07-10T12:07:32.486Z,34.80
2023-07-10T12:10:13.881Z,34.90
2023-07-10T12:24:40.367Z,35.30
2023-07-10T12:45:42.456Z,34.50
2023-07-10T13:00:41.031Z,33.50
2023-07-10T13:03:30.219Z,33.30
2023-07-10T13:10:05.287Z,33.10
2023-07-10T13:17:04.050Z,33.50
2023-07-10T13:19:40.396Z,33.70
2023-07-10T13:22:22.744Z,33.90
2023-07-10T13:36:02.083Z,34.20
2023-07-10T13:39:56.650Z,34.10
2023-07-10T13:43:19.816Z,33.60
2023-07-10T14:51:21.787Z,32.40
2023-07-10T14:53:55.744Z,32.20
2023-07-10T14:56:29.942Z,32.10
2023-07-10T14:59:03.823Z,32.00
2023-07-10T15:01:38.149Z,31.90
2023-07-10T15:04:12.117Z,31.80
2023-07-10T15:06:47.715Z,31.70
2023-07-10T15:09:21.542Z,31.60
2023-07-10T15:11:55.346Z,31.50
2023-07-10T15:14:29.189Z,31.50
2023-07-10T15:17:03.176Z,31.40
2023-07-10T15:19:38.417Z,31.40
2023-07-10T15:22:15.976Z,31.40
2023-07-10T15:24:51.200Z,31.40
2023-07-10T15:27:24.944Z,31.40
2023-07-10T15:29:58.716Z,31.40
2023-07-10T15:32:39.149Z,31.50
2023-07-10T15:35:14.329Z,31.40
2023-07-10T15:37:50.074Z,31.40
2023-07-10T15:40:25.885Z,31.30
2023-07-10T15:43:00.945Z,31.30
2023-07-10T15:45:34.608Z,31.30
2023-07-10T15:48:13.243Z,31.30
2023-07-10T15:50:47.350Z,31.30
2023-07-10T15:53:24.762Z,31.30
2023-07-10T15:55:58.970Z,31.30
2023-07-10T15:58:32.984Z,31.20
2023-07-10T16:01:06.898Z,31.20
2023-07-10T16:03:40.949Z,31.20
2023-07-10T16:06:14.646Z,31.10
2023-07-10T16:08:50.001Z,31.00
2023-07-10T16:11:24.050Z,30.80
2023-07-10T16:13:57.693Z,30.70
2023-07-10T16:16:31.534Z,30.50
2023-07-10T16:19:05.215Z,30.50
2023-07-10T16:21:39.153Z,30.30
2023-07-10T16:24:16.973Z,30.20
2023-07-10T16:26:52.566Z,30.00
2023-07-10T16:29:26.219Z,29.90
2023-07-10T16:31:59.898Z,29.70
2023-07-10T16:34:33.708Z,29.50
2023-07-10T16:37:12.418Z,29.40
2023-07-10T16:39:47.439Z,29.20
2023-07-10T16:42:21.176Z,29.00
2023-07-10T16:44:54.772Z,28.80
2023-07-10T16:47:28.468Z,28.70
2023-07-10T16:50:02.123Z,28.50
2023-07-10T16:52:35.893Z,28.40
2023-07-10T16:55:17.364Z,28.20
2023-07-10T16:57:53.659Z,28.10
2023-07-10T17:00:30.683Z,27.90
2023-07-10T17:03:04.486Z,27.80
2023-07-10T17:05:38.261Z,27.70
2023-07-10T17:08:14.518Z,27.60
2023-07-10T17:10:50.321Z,27.60
2023-07-10T17:13:26.825Z,27.50
2023-07-10T17:16:02.155Z,27.40
2023-07-10T17:18:37.872Z,27.30
2023-07-10T17:21:14.828Z,27.20
2023-07-10T17:23:48.799Z,27.20
2023-07-10T17:26:30.001Z,27.00
2023-07-10T17:29:04.175Z,26.90
2023-07-10T17:31:39.576Z,26.70
2023-07-10T17:34:20.875Z,26.50
2023-07-10T17:36:54.609Z,26.40
2023-07-10T17:39:29.901Z,26.20
2023-07-10T17:42:12.359Z,26.10
2023-07-10T17:44:46.077Z,26.00
2023-07-10T17:47:21.352Z,25.80
2023-07-10T17:49:55.121Z,25.80
2023-07-10T17:52:28.923Z,25.60
2023-07-10T17:55:02.655Z,25.50
2023-07-10T17:57:37.990Z,25.30
2023-07-10T18:00:15.601Z,25.20
2023-07-10T18:02:49.432Z,25.10
2023-07-10T18:05:23.629Z,24.90
2023-07-10T18:07:57.858Z,24.80
2023-07-10T18:10:35.838Z,24.70
2023-07-10T18:13:19.230Z,24.60
2023-07-10T18:15:53.002Z,24.40
2023-07-10T18:18:26.748Z,24.20
2023-07-10T18:21:01.701Z,24.00
2023-07-10T18:23:35.898Z,23.80
2023-07-10T18:26:12.205Z,23.60
2023-07-10T18:28:49.312Z,23.40
2023-07-10T18:31:25.675Z,23.30
2023-07-10T18:33:59.643Z,23.30
2023-07-10T18:36:33.510Z,23.20
2023-07-10T18:39:08.232Z,23.10
2023-07-10T18:41:43.144Z,23.00
2023-07-10T18:44:20.126Z,22.90
2023-07-10T18:46:54.013Z,22.80
2023-07-10T18:49:27.757Z,22.70
2023-07-10T18:52:01.625Z,22.60
2023-07-10T18:54:35.410Z,22.50
2023-07-10T18:57:11.103Z,22.40
2023-07-10T18:59:46.681Z,22.30
2023-07-10T19:02:21.158Z,22.20
2023-07-10T19:04:55.215Z,22.20
2023-07-10T19:07:29.104Z,22.20
2023-07-10T19:10:02.967Z,22.20
2023-07-10T19:12:37.126Z,22.20
2023-07-10T19:15:13.766Z,22.20
2023-07-10T19:17:48.230Z,22.10
2023-07-10T19:20:24.555Z,22.10
2023-07-10T19:22:59.339Z,22.00
2023-07-10T19:25:33.201Z,21.90
2023-07-10T19:28:07.352Z,21.90
2023-07-10T19:30:50.474Z,21.90
2023-07-10T19:33:29.478Z,21.80
2023-07-10T19:36:03.951Z,21.80
2023-07-10T19:38:42.569Z,21.80
2023-07-10T19:41:16.523Z,21.70
2023-07-10T19:43:50.762Z,21.60
2023-07-10T19:46:27.596Z,21.60
2023-07-10T19:49:01.449Z,21.60
2023-07-10T19:51:35.243Z,21.50
2023-07-10T19:54:17.890Z,21.40
2023-07-10T19:56:51.649Z,21.30
2023-07-10T19:59:25.435Z,21.20
2023-07-10T20:02:00.553Z,21.10
2023-07-10T20:04:34.315Z,21.00
2023-07-10T20:07:08.145Z,20.90
2023-07-10T20:09:41.864Z,20.90
2023-07-10T20:12:19.007Z,20.80
2023-07-10T20:14:53.312Z,20.70
2023-07-10T20:17:34.870Z,20.70
2023-07-10T20:20:20.037Z,20.60
2023-07-10T20:22:54.558Z,20.40
2023-07-10T20:25:28.474Z,20.40
2023-07-10T20:28:02.440Z,20.30
2023-07-10T20:30:36.426Z,20.20
2023-07-10T20:33:15.237Z,20.10
2023-07-10T20:35:50.864Z,20.00
2023-07-10T20:38:27.635Z,19.90
2023-07-10T20:41:01.900Z,19.80
2023-07-10T20:43:36.446Z,19.70
2023-07-10T20:46:15.111Z,19.60
2023-07-10T20:48:51.121Z,19.50
2023-07-10T20:51:28.069Z,19.50
2023-07-10T20:54:01.773Z,19.40
2023-07-10T20:56:35.788Z,19.30
2023-07-10T20:59:20.585Z,19.20
2023-07-10T21:01:55.169Z,19.20
2023-07-10T21:04:32.949Z,19.10
2023-07-10T21:07:16.788Z,19.10
2023-07-10T21:09:53.652Z,19.00
2023-07-10T21:12:27.758Z,19.00
2023-07-10T21:15:01.509Z,18.90
2023-07-10T21:17:35.479Z,18.80
2023-07-10T21:20:19.682Z,18.80
2023-07-10T21:22:56.805Z,18.70
2023-07-10T21:25:30.733Z,18.70
2023-07-10T21:28:04.523Z,18.60
2023-07-10T21:30:38.363Z,18.60
2023-07-10T21:33:18.359Z,18.50
2023-07-10T21:35:56.045Z,18.50
2023-07-10T21:38:29.695Z,18.40
2023-07-10T21:41:04.350Z,18.40
2023-07-10T21:43:38.906Z,18.30
2023-07-10T21:46:17.501Z,18.30
2023-07-10T21:48:52.112Z,18.20
2023-07-10T21:51:28.682Z,18.20
2023-07-10T21:54:02.436Z,18.10
2023-07-10T21:56:38.298Z,18.10
2023-07-10T21:59:20.864Z,18.10
2023-07-10T22:01:54.592Z,18.00
2023-07-10T22:04:28.401Z,18.00
2023-07-10T22:07:04.172Z,18.00
2023-07-10T22:09:37.918Z,18.00
2023-07-10T22:12:14.746Z,18.00
2023-07-10T22:14:48.484Z,17.90
2023-07-10T22:17:24.002Z,17.90
2023-07-10T22:19:58.480Z,17.90
2023-07-10T22:22:33.734Z,17.90
2023-07-10T22:25:10.351Z,17.90
2023-07-10T22:27:44.069Z,17.90
2023-07-10T22:30:18.052Z,17.90
2023-07-10T22:32:51.800Z,17.90
2023-07-10T22:35:25.534Z,17.90
2023-07-10T22:38:00.574Z,17.90
2023-07-10T22:40:35.002Z,17.90
2023-07-10T22:43:12.402Z,17.90
2023-07-10T22:45:47.247Z,17.90
2023-07-10T22:48:20.906Z,17.90
2023-07-10T22:50:54.656Z,17.90
2023-07-10T22:53:29.681Z,17.90
2023-07-10T22:56:03.554Z,17.90
2023-07-10T22:58:38.172Z,17.90
2023-07-10T23:01:12.680Z,17.80
2023-07-10T23:03:47.191Z,17.80
2023-07-10T23:06:23.240Z,17.80
2023-07-10T23:08:58.336Z,17.80
2023-07-10T23:11:32.049Z,17.80
2023-07-10T23:14:05.856Z,17.80
2023-07-10T23:16:39.702Z,17.80
2023-07-10T23:19:13.366Z,17.80
2023-07-10T23:21:47.023Z,17.80
2023-07-10T23:24:22.152Z,17.80
2023-07-10T23:26:55.954Z,17.80
2023-07-10T23:29:29.773Z,17.80
2023-07-10T23:32:03.673Z,17.80
2023-07-10T23:34:37.363Z,17.80
2023-07-10T23:37:11.129Z,17.80
2023-07-10T23:39:46.346Z,17.80
2023-07-10T23:42:20.344Z,17.80
2023-07-10T23:44:54.117Z,17.90
2023-07-10T23:47:27.865Z,17.90
2023-07-10T23:50:01.617Z,17.90
2023-07-10T23:52:35.547Z,17.90
2023-07-10T23:55:12.709Z,17.80
2023-07-10T23:57:47.817Z,17.90
